createdAt,value
2023-04-20T00:02:42.615Z,6.13
2023-04-20T00:07:29.660Z,5.33
2023-04-20T00:12:17.166Z,5.53
2023-04-20T00:17:04.092Z,6.20
2023-04-20T00:21:55.113Z,4.60
2023-04-20T00:26:41.559Z,5.00
2023-04-20T00:31:28.832Z,4.70
2023-04-20T00:36:18.769Z,4.50
2023-04-20T00:41:07.434Z,3.87
2023-04-20T00:45:53.670Z,3.67
2023-04-20T00:50:42.018Z,4.33
2023-04-20T00:55:29.299Z,4.13
2023-04-20T01:00:17.861Z,3.73
2023-04-20T01:05:09.665Z,3.97
2023-04-20T01:09:53.372Z,4.43
2023-04-20T01:14:40.095Z,4.60
2023-04-20T01:19:46.852Z,4.67
2023-04-20T01:24:34.831Z,3.70
2023-04-20T01:29:21.494Z,4.90
2023-04-20T01:34:06.743Z,4.83
2023-04-20T01:38:55.136Z,5.30
2023-04-20T01:44:01.607Z,6.60
2023-04-20T01:48:54.413Z,5.67
2023-04-20T01:53:51.552Z,7.00
2023-04-20T01:58:44.798Z,7.17
2023-04-20T02:03:30.065Z,7.00
2023-04-20T02:08:15.298Z,8.60
2023-04-20T02:13:19.877Z,9.27
2023-04-20T02:18:13.377Z,8.07
2023-04-20T02:22:58.703Z,8.10
2023-04-20T02:27:45.389Z,7.57
2023-04-20T02:32:38.569Z,7.67
2023-04-20T02:37:52.849Z,8.30
2023-04-20T02:42:43.133Z,8.00
2023-04-20T02:47:50.636Z,8.05
2023-04-20T02:53:03.230Z,9.17
2023-04-20T02:57:53.052Z,8.53
2023-04-20T03:02:40.596Z,8.97
2023-04-20T03:07:28.088Z,7.53
2023-04-20T03:12:18.434Z,7.63
2023-04-20T03:17:22.597Z,7.67
2023-04-20T03:22:40.797Z,7.93
2023-04-20T03:27:30.428Z,8.53
2023-04-20T03:32:45.740Z,7.93
2023-04-20T03:37:55.589Z,8.33
2023-04-20T03:42:39.384Z,9.00
2023-04-20T03:48:03.404Z,8.77
2023-04-20T03:52:48.582Z,9.43
2023-04-20T03:57:35.772Z,9.80
2023-04-20T04:02:40.256Z,8.20
2023-04-20T04:07:28.778Z,8.60
2023-04-20T04:12:18.394Z,8.73
2023-04-20T04:17:04.233Z,9.07
2023-04-20T04:21:51.394Z,11.47
2023-04-20T04:27:02.260Z,11.07
2023-04-20T04:32:05.382Z,11.73
2023-04-20T04:36:49.261Z,13.07
2023-04-20T04:41:38.287Z,12.90
2023-04-20T04:46:56.590Z,26.57
2023-04-20T04:51:43.365Z,10.07
2023-04-20T04:56:37.461Z,10.00
2023-04-20T05:01:21.394Z,11.83
2023-04-20T05:06:25.406Z,14.30
2023-04-20T05:11:12.584Z,12.10
2023-04-20T05:15:59.256Z,14.40
2023-04-20T05:20:49.908Z,17.33
2023-04-20T05:25:38.797Z,11.30
2023-04-20T05:30:25.658Z,13.73
2023-04-20T05:35:12.269Z,10.30
2023-04-20T05:39:59.114Z,12.90
2023-04-20T05:44:52.214Z,17.20
2023-04-20T05:49:36.003Z,13.70
2023-04-20T05:54:25.269Z,11.17
2023-04-20T05:59:12.148Z,15.77
2023-04-20T06:04:02.124Z,11.97
2023-04-20T06:08:47.475Z,12.10
2023-04-20T06:13:35.280Z,23.30
2023-04-20T06:18:27.922Z,14.50
2023-04-20T06:23:16.277Z,12.20
2023-04-20T06:27:59.896Z,17.57
2023-04-20T06:32:48.921Z,11.23
2023-04-20T06:37:42.769Z,12.37
2023-04-20T06:42:58.479Z,12.47
2023-04-20T06:48:03.242Z,11.97
2023-04-20T06:52:49.677Z,11.30
2023-04-20T06:57:35.465Z,10.63
2023-04-20T07:02:23.371Z,11.47
2023-04-20T07:07:11.846Z,12.37
2023-04-20T07:12:01.408Z,12.37
2023-04-20T07:16:48.611Z,14.70
2023-04-20T07:21:52.528Z,11.87
2023-04-20T07:26:39.222Z,11.67
2023-04-20T07:31:31.966Z,12.10
2023-04-20T07:36:16.538Z,12.97
2023-04-20T07:41:05.341Z,11.93
2023-04-20T07:45:50.717Z,12.00
2023-04-20T07:50:40.215Z,12.33
2023-04-20T07:55:26.041Z,12.37
2023-04-20T08:00:20.307Z,12.30
2023-04-20T08:05:04.404Z,11.87
2023-04-20T08:09:51.648Z,13.97
2023-04-20T08:14:41.586Z,13.07
2023-04-20T08:19:31.295Z,12.03
2023-04-20T08:24:17.364Z,11.70
2023-04-20T08:29:07.673Z,11.70
2023-04-20T08:33:51.432Z,11.80
2023-04-20T08:38:39.264Z,11.77
2023-04-20T08:43:28.360Z,12.60
2023-04-20T08:48:18.636Z,11.20
2023-04-20T08:53:07.675Z,12.43
2023-04-20T08:57:55.322Z,11.93
2023-04-20T09:02:59.071Z,12.07
2023-04-20T09:07:56.722Z,12.10
2023-04-20T09:12:46.874Z,12.70
2023-04-20T09:17:52.614Z,11.97
2023-04-20T09:22:43.595Z,12.90
2023-04-20T09:27:27.635Z,12.70
2023-04-20T09:32:34.809Z,11.80
2023-04-20T09:37:20.089Z,12.07
2023-04-20T09:42:13.909Z,12.77
2023-04-20T09:46:58.149Z,12.77
2023-04-20T09:51:47.994Z,13.53
2023-04-20T09:56:36.137Z,13.00
2023-04-20T10:01:23.896Z,12.17
2023-04-20T10:06:08.070Z,12.77
2023-04-20T10:10:57.713Z,11.93
2023-04-20T10:15:45.256Z,12.43
2023-04-20T10:20:34.842Z,12.87
2023-04-20T10:25:22.483Z,13.07
2023-04-20T10:30:12.913Z,12.90
2023-04-20T10:35:08.073Z,13.53
2023-04-20T10:39:58.661Z,13.90
2023-04-20T10:45:03.614Z,15.07
2023-04-20T10:50:06.841Z,14.73
2023-04-20T10:54:56.583Z,14.67
2023-04-20T10:59:49.460Z,15.63
2023-04-20T11:04:33.776Z,14.77
2023-04-20T11:09:23.074Z,15.23
2023-04-20T11:14:13.272Z,15.57
2023-04-20T11:18:58.340Z,16.13
2023-04-20T11:23:45.229Z,15.60
2023-04-20T11:28:34.620Z,14.83
2023-04-20T11:34:10.199Z,15.47
2023-04-20T11:39:14.177Z,15.67
2023-04-20T11:44:03.817Z,14.73
2023-04-20T11:48:48.152Z,14.30
2023-04-20T11:53:41.442Z,15.23
2023-04-20T11:58:26.546Z,16.20
2023-04-20T12:03:13.213Z,14.43
2023-04-20T12:07:59.942Z,16.40
2023-04-20T12:12:53.810Z,15.27
2023-04-20T12:17:38.735Z,15.17
2023-04-20T12:22:26.178Z,15.23
2023-04-20T12:27:11.527Z,16.30
2023-04-20T12:32:01.314Z,17.23
2023-04-20T12:37:04.057Z,17.63
2023-04-20T12:42:25.542Z,17.53
2023-04-20T12:47:13.726Z,17.83
2023-04-20T12:52:00.428Z,17.80
2023-04-20T12:56:48.255Z,17.90
2023-04-20T13:01:37.412Z,17.17
2023-04-20T13:06:24.436Z,17.83
2023-04-20T13:11:18.006Z,15.93
2023-04-20T13:16:03.366Z,15.90
2023-04-20T13:20:50.167Z,17.37
2023-04-20T13:25:38.347Z,15.70
2023-04-20T13:30:24.975Z,16.73
2023-04-20T13:35:14.688Z,14.90
2023-04-20T13:40:00.652Z,14.97
2023-04-20T13:44:47.895Z,16.33
2023-04-20T13:49:37.307Z,14.13
2023-04-20T13:54:40.009Z,15.33
2023-04-20T13:59:29.162Z,14.57
2023-04-20T14:04:19.144Z,14.87
2023-04-20T14:09:05.042Z,14.20
2023-04-20T14:13:52.682Z,14.13
2023-04-20T14:18:38.359Z,14.30
2023-04-20T14:23:26.331Z,13.40
2023-04-20T14:28:18.644Z,14.40
2023-04-20T14:33:04.383Z,14.23
2023-04-20T14:37:54.674Z,14.00
2023-04-20T14:42:39.917Z,13.03
2023-04-20T14:47:29.164Z,14.07
2023-04-20T14:52:19.120Z,13.77
2023-04-20T14:57:06.680Z,13.67
2023-04-20T15:02:01.767Z,13.50
2023-04-20T15:06:58.692Z,13.77
2023-04-20T15:11:47.216Z,13.27
2023-04-20T15:16:31.902Z,13.60
2023-04-20T15:21:21.552Z,15.07
2023-04-20T15:26:10.939Z,15.37
2023-04-20T15:30:56.145Z,14.53
2023-04-20T15:35:45.967Z,14.50
2023-04-20T15:40:32.544Z,13.70
2023-04-20T15:45:21.278Z,14.60
2023-04-20T15:50:54.590Z,14.37
2023-04-20T15:55:44.675Z,14.33
2023-04-20T16:00:34.076Z,13.93
2023-04-20T16:05:19.132Z,14.40
2023-04-20T16:10:09.543Z,13.47
2023-04-20T16:15:46.695Z,14.17
2023-04-20T16:20:31.628Z,12.63
2023-04-20T16:25:24.620Z,14.00
2023-04-20T16:30:09.909Z,13.37
2023-04-20T16:34:56.450Z,12.57
2023-04-20T16:39:45.169Z,12.47
2023-04-20T16:44:33.437Z,11.97
2023-04-20T16:49:23.476Z,12.93
2023-04-20T16:54:07.075Z,12.07
2023-04-20T16:58:56.576Z,11.03
2023-04-20T17:03:57.756Z,10.43
2023-04-20T17:08:47.504Z,11.10
2023-04-20T17:13:37.255Z,10.40
2023-04-20T17:18:23.645Z,10.00
2023-04-20T17:23:13.652Z,9.53
2023-04-20T17:28:03.714Z,9.50
2023-04-20T17:32:47.477Z,9.63
2023-04-20T17:37:40.242Z,10.10
2023-04-20T17:42:23.947Z,9.27
2023-04-20T17:47:15.011Z,9.53
2023-04-20T17:52:01.043Z,9.27
2023-04-20T17:56:49.232Z,9.97
2023-04-20T18:01:38.743Z,9.53
2023-04-20T18:06:24.259Z,11.53
2023-04-20T18:11:14.948Z,13.37
2023-04-20T18:16:14.491Z,12.23
2023-04-20T18:21:02.053Z,13.73
2023-04-20T18:25:53.568Z,13.10
2023-04-20T18:30:38.806Z,14.40
2023-04-20T18:35:27.500Z,14.90
2023-04-20T18:40:17.342Z,14.27
2023-04-20T18:45:03.826Z,16.17
2023-04-20T18:49:53.251Z,15.47
2023-04-20T18:54:40.666Z,14.97
2023-04-20T18:59:29.180Z,14.87
2023-04-20T19:04:19.139Z,15.87
2023-04-20T19:09:07.905Z,14.60
2023-04-20T19:13:53.433Z,14.80
2023-04-20T19:18:39.009Z,15.60
2023-04-20T19:23:28.710Z,15.20
2023-04-20T19:28:17.496Z,15.77
2023-04-20T19:33:05.020Z,14.87
2023-04-20T19:37:51.650Z,16.13
2023-04-20T19:42:42.408Z,16.13
2023-04-20T19:47:29.064Z,15.63
2023-04-20T19:52:16.453Z,16.07
2023-04-20T19:57:04.613Z,15.53
2023-04-20T20:01:54.089Z,15.83
2023-04-20T20:06:40.651Z,16.73
2023-04-20T20:11:48.639Z,15.20
2023-04-20T20:16:36.278Z,14.80
2023-04-20T20:21:19.683Z,14.53
2023-04-20T20:26:09.397Z,14.93
2023-04-20T20:30:57.827Z,14.93
2023-04-20T20:35:44.522Z,14.10
2023-04-20T20:40:35.535Z,15.03
2023-04-20T20:45:22.242Z,14.90
2023-04-20T20:50:09.385Z,14.50
2023-04-20T20:54:56.345Z,15.77
2023-04-20T20:59:44.755Z,15.70
2023-04-20T21:04:34.401Z,14.77
2023-04-20T21:09:21.601Z,14.43
2023-04-20T21:14:07.252Z,14.67
2023-04-20T21:18:56.881Z,13.70
2023-04-20T21:23:43.664Z,14.97
2023-04-20T21:28:36.078Z,14.83
2023-04-20T21:33:19.899Z,14.93
2023-04-20T21:38:09.410Z,14.67
2023-04-20T21:42:59.277Z,16.20
2023-04-20T21:47:44.288Z,16.63
2023-04-20T21:52:33.949Z,15.50
2023-04-20T21:57:19.469Z,15.87
2023-04-20T22:02:08.825Z,15.20
2023-04-20T22:06:56.942Z,16.03
2023-04-20T22:11:46.618Z,16.37
2023-04-20T22:16:34.064Z,16.40
2023-04-20T22:21:21.470Z,16.80
2023-04-20T22:26:10.187Z,16.73
2023-04-20T22:30:57.267Z,16.77
2023-04-20T22:35:43.960Z,17.30
2023-04-20T22:40:33.858Z,18.47
2023-04-20T22:45:39.841Z,19.10
2023-04-20T22:50:23.852Z,17.67
2023-04-20T22:55:12.391Z,17.97
2023-04-20T23:00:01.414Z,17.17
2023-04-20T23:04:48.890Z,19.00
2023-04-20T23:09:41.330Z,18.03
2023-04-20T23:14:25.726Z,17.83
2023-04-20T23:19:13.256Z,18.43
2023-04-20T23:24:00.997Z,18.73
2023-04-20T23:28:52.296Z,17.80
2023-04-20T23:33:35.796Z,18.20
2023-04-20T23:38:23.952Z,17.90
2023-04-20T23:43:16.258Z,17.27
2023-04-20T23:47:59.712Z,16.70
2023-04-20T23:52:54.242Z,17.40
2023-04-20T23:57:37.771Z,16.63
